Terminal Aerodrome Forecast
Issued by NWS

Home | Current Version | Previous Version | Text Only | Print | Product List | Glossary On
Versions: 1 2 3 4 5 6 7 8 9 10 11 12 13 14 15 16 17 18
094
FTUS43 KICT 241137
TAFHUT
TAF
KHUT 241137Z 2412/2512 06012G19KT P6SM SCT004 OVC012
      TEMPO 2412/2414 BKN004
     FM241400 09012KT P6SM VCTS BKN022CB
     FM241700 17018G25KT P6SM BKN035
     FM250000 16015G23KT P6SM VCTS SCT035 BKN060CB
     FM250300 17012KT P6SM -SHRA VCTS BKN020CB
     FM250600 17013KT P6SM VCSH BKN015=

USA.gov is the U.S. government's official web portal to all federal, state and local government web resources and services.